createdAt,value
2023-02-08T00:00:53.051Z,5.60
2023-02-08T00:03:19.858Z,5.60
2023-02-08T00:05:46.571Z,5.60
2023-02-08T00:08:13.419Z,5.60
2023-02-08T00:10:40.683Z,5.60
2023-02-08T00:13:07.987Z,5.60
2023-02-08T00:15:35.096Z,5.60
2023-02-08T00:18:01.911Z,5.60
2023-02-08T00:20:28.613Z,6.00
2023-02-08T00:22:55.315Z,5.60
2023-02-08T00:25:22.041Z,5.60
2023-02-08T00:27:48.991Z,5.60
2023-02-08T00:30:15.767Z,5.60
2023-02-08T00:32:42.725Z,5.60
2023-02-08T00:35:09.507Z,5.60
2023-02-08T00:37:36.237Z,5.60
2023-02-08T00:40:05.834Z,5.60
2023-02-08T00:42:32.925Z,5.70
2023-02-08T00:44:59.762Z,5.70
2023-02-08T00:47:26.633Z,5.70
2023-02-08T00:49:53.521Z,5.60
2023-02-08T00:52:20.675Z,5.70
2023-02-08T00:54:47.852Z,6.80
2023-02-08T00:57:15.551Z,5.70
2023-02-08T00:59:42.299Z,5.70
2023-02-08T01:02:09.344Z,5.70
2023-02-08T01:04:36.513Z,5.90
2023-02-08T01:07:04.088Z,5.60
2023-02-08T01:09:31.597Z,5.70
2023-02-08T01:11:58.348Z,5.70
2023-02-08T01:14:25.694Z,5.70
2023-02-08T01:16:52.666Z,7.00
2023-02-08T01:19:19.592Z,5.70
2023-02-08T01:21:46.734Z,5.70
2023-02-08T01:24:13.612Z,5.70
2023-02-08T01:26:40.330Z,5.70
2023-02-08T01:29:07.496Z,5.70
2023-02-08T01:31:37.383Z,5.70
2023-02-08T01:34:05.943Z,5.70
2023-02-08T01:36:34.150Z,5.80
2023-02-08T01:39:01.485Z,5.70
2023-02-08T01:41:34.754Z,5.70
2023-02-08T01:44:13.771Z,5.60
2023-02-08T01:46:49.369Z,5.60
2023-02-08T01:49:24.779Z,5.60
2023-02-08T01:52:03.227Z,5.70
2023-02-08T01:54:36.408Z,5.70
2023-02-08T01:57:03.975Z,5.70
2023-02-08T01:59:42.748Z,6.60
2023-02-08T02:02:14.877Z,5.70
2023-02-08T02:04:42.103Z,5.70
2023-02-08T02:07:09.118Z,5.70
2023-02-08T02:09:44.258Z,5.70
2023-02-08T02:12:12.935Z,5.70
2023-02-08T02:14:40.785Z,5.70
2023-02-08T02:17:07.759Z,5.70
2023-02-08T02:19:48.802Z,5.70
2023-02-08T02:22:32.677Z,5.70
2023-02-08T02:25:28.330Z,5.70
2023-02-08T02:28:01.223Z,5.80
2023-02-08T02:30:49.341Z,5.80
2023-02-08T02:33:36.403Z,5.80
2023-02-08T02:36:32.665Z,5.80
2023-02-08T02:39:14.420Z,5.80
2023-02-08T02:42:29.156Z,5.80
2023-02-08T02:45:51.864Z,5.80
2023-02-08T02:48:32.105Z,5.80
2023-02-08T02:51:08.973Z,5.80
2023-02-08T02:53:45.162Z,5.80
2023-02-08T02:56:24.535Z,5.80
2023-02-08T02:58:53.367Z,5.80
2023-02-08T03:01:26.927Z,5.80
2023-02-08T03:03:55.089Z,5.80
2023-02-08T03:06:57.440Z,5.80
2023-02-08T03:09:42.428Z,5.80
2023-02-08T03:12:36.169Z,5.80
2023-02-08T03:15:16.517Z,5.90
2023-02-08T03:17:56.993Z,5.90
2023-02-08T03:20:37.035Z,5.90
2023-02-08T03:23:19.374Z,5.90
2023-02-08T03:26:02.836Z,6.00
2023-02-08T03:28:59.290Z,6.00
2023-02-08T03:32:12.902Z,6.00
2023-02-08T03:34:56.718Z,6.00
2023-02-08T03:37:46.893Z,6.00
2023-02-08T03:40:39.329Z,6.00
2023-02-08T03:43:15.954Z,6.10
2023-02-08T03:45:49.779Z,6.00
2023-02-08T03:48:20.080Z,6.10
2023-02-08T03:50:52.323Z,6.00
2023-02-08T03:53:22.298Z,6.00
2023-02-08T03:55:54.481Z,6.00
2023-02-08T03:58:31.372Z,6.00
2023-02-08T04:01:14.932Z,6.00
2023-02-08T04:03:43.135Z,6.00
2023-02-08T04:06:10.324Z,6.00
2023-02-08T04:08:37.032Z,6.00
2023-02-08T04:11:03.763Z,6.00
2023-02-08T04:13:30.539Z,6.00
2023-02-08T04:15:57.439Z,6.10
2023-02-08T04:18:24.161Z,6.00
2023-02-08T04:20:50.865Z,6.10
2023-02-08T04:23:17.566Z,6.10
2023-02-08T04:25:44.299Z,7.20
2023-02-08T04:28:11.281Z,6.00
2023-02-08T04:30:38.071Z,6.00
2023-02-08T04:33:04.934Z,6.00
2023-02-08T04:35:31.817Z,6.00
2023-02-08T04:37:59.427Z,6.00
2023-02-08T04:40:26.253Z,5.90
2023-02-08T04:42:53.027Z,6.40
2023-02-08T04:45:20.801Z,6.00
2023-02-08T04:47:47.614Z,6.00
2023-02-08T04:50:14.740Z,6.00
2023-02-08T04:52:41.477Z,6.30
2023-02-08T04:55:08.367Z,5.90
2023-02-08T04:57:35.201Z,5.90
2023-02-08T05:00:02.379Z,5.90
2023-02-08T05:02:29.538Z,6.00
2023-02-08T05:04:56.433Z,5.90
2023-02-08T05:07:23.228Z,5.90
2023-02-08T05:09:49.927Z,6.00
2023-02-08T05:12:16.948Z,6.00
2023-02-08T05:14:46.573Z,6.00
2023-02-08T05:17:13.804Z,6.00
2023-02-08T05:19:41.342Z,6.00
2023-02-08T05:22:10.551Z,6.00
2023-02-08T05:24:39.948Z,6.10
2023-02-08T05:27:10.039Z,6.00
2023-02-08T05:29:40.719Z,6.10
2023-02-08T05:32:07.630Z,6.10
2023-02-08T05:34:38.475Z,6.10
2023-02-08T05:37:08.531Z,6.10
2023-02-08T05:39:36.763Z,6.00
2023-02-08T05:42:03.859Z,6.00
2023-02-08T05:44:34.174Z,6.00
2023-02-08T05:47:04.240Z,6.00
2023-02-08T05:49:34.408Z,6.00
2023-02-08T05:52:06.383Z,6.10
2023-02-08T05:54:36.690Z,6.00
2023-02-08T05:57:06.455Z,7.20
2023-02-08T05:59:36.499Z,6.10
2023-02-08T06:02:03.372Z,6.10
2023-02-08T06:04:31.223Z,6.00
2023-02-08T06:07:03.480Z,6.10
2023-02-08T06:09:30.687Z,6.10
2023-02-08T06:11:57.568Z,6.10
2023-02-08T06:14:27.857Z,6.10
2023-02-08T06:16:57.943Z,6.10
2023-02-08T06:19:25.177Z,6.10
2023-02-08T06:21:55.486Z,7.00
2023-02-08T06:24:28.343Z,6.00
2023-02-08T06:26:59.085Z,6.00
2023-02-08T06:29:26.888Z,6.10
2023-02-08T06:32:00.433Z,6.10
2023-02-08T06:34:32.164Z,6.00
2023-02-08T06:37:03.354Z,6.00
2023-02-08T06:39:34.941Z,6.00
2023-02-08T06:42:01.833Z,6.00
2023-02-08T06:44:33.295Z,6.00
2023-02-08T06:47:00.132Z,6.00
2023-02-08T06:49:27.224Z,5.90
2023-02-08T06:51:54.106Z,6.30
2023-02-08T06:54:24.657Z,5.80
2023-02-08T06:56:54.736Z,5.80
2023-02-08T06:59:21.873Z,5.80
2023-02-08T07:01:51.783Z,5.70
2023-02-08T07:04:18.752Z,5.70
2023-02-08T07:06:50.369Z,5.60
2023-02-08T07:09:17.830Z,5.70
2023-02-08T07:11:50.201Z,5.70
2023-02-08T07:14:17.189Z,7.00
2023-02-08T07:16:49.489Z,5.60
2023-02-08T07:19:16.373Z,5.60
2023-02-08T07:21:43.546Z,5.60
2023-02-08T07:24:10.419Z,5.60
2023-02-08T07:26:40.548Z,5.60
2023-02-08T07:29:11.278Z,5.60
2023-02-08T07:31:42.321Z,5.60
2023-02-08T07:34:09.180Z,5.60
2023-02-08T07:36:36.264Z,5.50
2023-02-08T07:39:06.510Z,5.50
2023-02-08T07:41:36.670Z,5.50
2023-02-08T07:44:03.983Z,5.50
2023-02-08T07:46:34.317Z,5.50
2023-02-08T07:49:04.489Z,5.50
2023-02-08T07:51:31.341Z,5.50
2023-02-08T07:54:02.702Z,5.50
2023-02-08T07:56:29.735Z,5.50
2023-02-08T07:58:56.561Z,5.40
2023-02-08T08:01:26.613Z,5.40
2023-02-08T08:03:56.903Z,5.40
2023-02-08T08:06:24.259Z,5.50
2023-02-08T08:08:51.568Z,5.50
2023-02-08T08:11:20.061Z,5.50
2023-02-08T08:13:50.208Z,5.40
2023-02-08T08:16:17.610Z,5.40
2023-02-08T08:18:44.925Z,5.40
2023-02-08T08:21:15.470Z,5.40
2023-02-08T08:23:45.996Z,5.40
2023-02-08T08:26:16.683Z,5.50
2023-02-08T08:28:47.929Z,5.50
2023-02-08T08:31:21.612Z,5.50
2023-02-08T08:33:49.226Z,5.50
2023-02-08T08:36:20.527Z,5.50
2023-02-08T08:38:52.042Z,5.50
2023-02-08T08:41:18.974Z,5.50
2023-02-08T08:43:46.052Z,5.50
2023-02-08T08:46:16.873Z,5.40
2023-02-08T08:48:44.796Z,5.40
2023-02-08T08:51:12.438Z,5.40
2023-02-08T08:53:43.153Z,5.40
2023-02-08T08:56:10.511Z,5.40
2023-02-08T08:58:40.137Z,5.50
2023-02-08T09:01:07.296Z,5.50
2023-02-08T09:03:34.459Z,5.50
2023-02-08T09:06:08.892Z,5.60
2023-02-08T09:08:36.003Z,5.60
2023-02-08T09:11:07.485Z,5.60
2023-02-08T09:13:34.292Z,5.70
2023-02-08T09:16:08.208Z,5.70
2023-02-08T09:18:35.635Z,5.70
2023-02-08T09:21:14.373Z,5.70
2023-02-08T09:23:45.583Z,5.70
2023-02-08T09:26:15.021Z,5.70
2023-02-08T09:28:41.980Z,5.70
2023-02-08T09:31:22.846Z,5.70
2023-02-08T09:33:51.217Z,5.70
2023-02-08T09:36:18.516Z,5.70
2023-02-08T09:38:49.446Z,5.70
2023-02-08T09:41:44.307Z,5.80
2023-02-08T09:44:49.314Z,5.80
2023-02-08T09:47:37.510Z,5.80
2023-02-08T09:50:17.583Z,5.80
2023-02-08T09:53:01.155Z,5.80
2023-02-08T09:55:57.700Z,5.80
2023-02-08T09:58:55.168Z,5.80
2023-02-08T10:01:28.477Z,5.80
2023-02-08T10:04:20.066Z,5.80
2023-02-08T10:06:49.710Z,5.80
2023-02-08T10:09:22.617Z,5.80
2023-02-08T10:12:27.110Z,5.80
2023-02-08T10:15:03.880Z,5.90
2023-02-08T10:17:50.585Z,5.90
2023-02-08T10:20:45.955Z,5.90
2023-02-08T10:23:36.346Z,5.90
2023-02-08T10:26:24.453Z,6.00
2023-02-08T10:29:10.024Z,6.00
2023-02-08T10:31:58.469Z,6.00
2023-02-08T10:34:44.719Z,5.90
2023-02-08T10:37:31.697Z,5.90
2023-02-08T10:40:12.981Z,5.90
2023-02-08T10:42:40.841Z,5.90
2023-02-08T10:45:42.273Z,5.90
2023-02-08T10:48:15.935Z,5.80
2023-02-08T10:50:47.248Z,5.80
2023-02-08T10:53:17.419Z,5.80
2023-02-08T10:55:46.692Z,5.80
2023-02-08T10:58:21.057Z,5.80
2023-02-08T11:00:49.678Z,5.80
2023-02-08T11:03:21.111Z,5.80
2023-02-08T11:05:51.541Z,7.30
2023-02-08T11:08:24.162Z,5.80
2023-02-08T11:11:07.438Z,5.80
2023-02-08T11:13:39.970Z,5.80
2023-02-08T11:16:11.139Z,5.80
2023-02-08T11:18:56.130Z,5.90
2023-02-08T11:21:34.873Z,5.90
2023-02-08T11:24:20.864Z,5.90
2023-02-08T11:26:51.308Z,5.90
2023-02-08T11:29:27.832Z,5.90
2023-02-08T11:32:01.117Z,6.00
2023-02-08T11:34:40.792Z,6.00
2023-02-08T11:37:28.934Z,6.10
2023-02-08T11:39:58.052Z,6.20
2023-02-08T11:42:36.185Z,6.50
2023-02-08T11:45:04.629Z,6.40
2023-02-08T11:47:34.186Z,6.40
2023-02-08T11:50:03.999Z,6.50
2023-02-08T11:52:32.556Z,6.40
2023-02-08T11:55:17.806Z,6.30
2023-02-08T11:58:11.570Z,6.30
2023-02-08T12:00:40.279Z,6.30
2023-02-08T12:03:18.390Z,6.30
2023-02-08T12:06:00.281Z,6.20
2023-02-08T12:08:30.061Z,6.20
2023-02-08T12:11:01.981Z,6.10
2023-02-08T12:14:07.065Z,6.10
2023-02-08T12:16:47.158Z,6.20
2023-02-08T12:19:19.359Z,6.10
2023-02-08T12:21:50.420Z,6.10
2023-02-08T12:24:55.723Z,7.50
2023-02-08T12:27:37.549Z,6.10
2023-02-08T12:30:20.064Z,6.10
2023-02-08T12:33:20.017Z,6.10
2023-02-08T12:36:05.140Z,6.20
2023-02-08T12:39:24.679Z,6.30
2023-02-08T12:42:18.622Z,6.40
2023-02-08T12:45:18.380Z,6.40
2023-02-08T12:48:04.086Z,6.50
2023-02-08T12:50:51.341Z,6.50
2023-02-08T12:53:53.528Z,6.50
2023-02-08T12:56:28.481Z,6.50
2023-02-08T12:59:08.149Z,6.50
2023-02-08T13:01:46.257Z,6.50
2023-02-08T13:04:35.875Z,6.50
2023-02-08T13:07:12.366Z,6.50
2023-02-08T13:10:05.674Z,6.60
2023-02-08T13:12:44.636Z,6.60
2023-02-08T13:15:30.707Z,6.60
2023-02-08T13:18:00.203Z,6.60
2023-02-08T13:20:45.280Z,6.60
2023-02-08T13:23:24.809Z,6.70
2023-02-08T13:25:55.951Z,6.80
2023-02-08T13:28:24.489Z,6.80
2023-02-08T13:31:00.268Z,6.80
2023-02-08T13:34:00.414Z,6.80
2023-02-08T13:36:33.128Z,6.80
2023-02-08T13:39:02.796Z,6.70
2023-02-08T13:41:31.794Z,6.70
2023-02-08T13:44:04.223Z,6.80
2023-02-08T13:46:45.430Z,6.70
2023-02-08T13:49:40.058Z,6.60
2023-02-08T13:52:11.933Z,6.70
2023-02-08T13:54:39.915Z,6.60
2023-02-08T13:57:50.593Z,6.60
2023-02-08T14:00:32.667Z,6.60
2023-02-08T14:03:14.389Z,6.60
2023-02-08T14:05:44.387Z,6.50
2023-02-08T14:08:31.425Z,6.50
2023-02-08T14:11:16.091Z,6.40
2023-02-08T14:13:54.768Z,6.30
2023-02-08T14:16:27.569Z,6.20
2023-02-08T14:19:00.822Z,6.10
2023-02-08T14:21:37.448Z,6.00
2023-02-08T14:24:07.898Z,5.90
2023-02-08T14:26:37.179Z,5.80
2023-02-08T14:29:06.405Z,5.70
2023-02-08T14:31:42.608Z,5.60
2023-02-08T14:34:38.053Z,7.50
2023-02-08T14:37:21.614Z,5.50
2023-02-08T14:39:52.882Z,5.40
2023-02-08T14:42:55.334Z,5.30
2023-02-08T14:45:36.090Z,5.20
2023-02-08T14:48:29.052Z,5.20
2023-02-08T14:51:09.980Z,5.20
2023-02-08T14:53:54.210Z,5.20
2023-02-08T14:56:32.772Z,5.10
2023-02-08T14:59:14.799Z,5.10
2023-02-08T15:01:53.176Z,5.10
2023-02-08T15:04:20.760Z,5.00
2023-02-08T15:07:31.768Z,5.00
2023-02-08T15:10:04.378Z,5.00
2023-02-08T15:12:43.423Z,5.00
2023-02-08T15:15:32.986Z,5.60
2023-02-08T15:18:01.721Z,4.90
2023-02-08T15:20:36.196Z,4.90
2023-02-08T15:23:05.153Z,4.90
2023-02-08T15:25:36.916Z,4.90
2023-02-08T15:28:25.606Z,4.80
2023-02-08T15:31:17.711Z,4.80
2023-02-08T15:33:45.857Z,4.80
2023-02-08T15:36:36.884Z,4.80
2023-02-08T15:39:12.133Z,4.70
2023-02-08T15:41:38.923Z,4.70
2023-02-08T15:44:22.154Z,4.60
2023-02-08T15:49:23.057Z,4.60
2023-02-08T15:51:51.058Z,4.50
2023-02-08T15:54:19.552Z,4.50
2023-02-08T15:56:59.082Z,4.50
2023-02-08T15:59:33.043Z,4.50
2023-02-08T16:02:19.412Z,4.50
2023-02-08T16:04:47.481Z,4.50
2023-02-08T16:07:28.283Z,4.30
2023-02-08T16:09:56.466Z,4.30
2023-02-08T16:12:26.084Z,4.20
2023-02-08T16:14:56.748Z,4.20
2023-02-08T16:17:36.384Z,4.20
2023-02-08T16:20:04.318Z,4.20
2023-02-08T16:22:34.299Z,4.10
2023-02-08T16:25:35.430Z,4.10
2023-02-08T16:28:04.594Z,4.00
2023-02-08T16:30:32.216Z,4.00
2023-02-08T16:33:06.698Z,4.00
2023-02-08T16:35:37.745Z,3.90
2023-02-08T16:38:10.192Z,3.90
2023-02-08T16:40:51.668Z,3.80
2023-02-08T16:43:18.482Z,3.80
2023-02-08T16:45:48.078Z,3.70
2023-02-08T16:48:33.539Z,3.60
2023-02-08T16:51:01.161Z,3.50
2023-02-08T16:53:41.403Z,3.50
2023-02-08T16:56:10.056Z,3.50
2023-02-08T16:58:37.287Z,3.50
2023-02-08T17:01:04.728Z,3.50
2023-02-08T17:03:32.858Z,3.50
2023-02-08T17:06:01.131Z,3.50
2023-02-08T17:08:28.314Z,3.50
2023-02-08T17:10:59.095Z,3.50
2023-02-08T17:13:29.474Z,3.70
2023-02-08T17:16:00.300Z,3.50
2023-02-08T17:18:27.289Z,4.00
2023-02-08T17:20:59.506Z,3.60
2023-02-08T17:23:26.772Z,3.60
2023-02-08T17:25:53.915Z,3.60
2023-02-08T17:28:21.936Z,3.60
2023-02-08T17:30:50.125Z,3.60
2023-02-08T17:33:20.251Z,3.60
2023-02-08T17:35:51.860Z,3.60
2023-02-08T17:38:20.331Z,3.60
2023-02-08T17:40:47.790Z,3.60
2023-02-08T17:43:15.542Z,3.60
2023-02-08T17:45:44.712Z,3.60
2023-02-08T17:48:15.889Z,3.70
2023-02-08T17:50:47.978Z,3.70
2023-02-08T17:53:19.309Z,3.70
2023-02-08T17:55:50.412Z,3.70
2023-02-08T17:58:21.905Z,3.70
2023-02-08T18:00:48.947Z,3.70
2023-02-08T18:03:17.372Z,3.70
2023-02-08T18:05:44.317Z,3.80
2023-02-08T18:08:11.329Z,3.70
2023-02-08T18:10:38.409Z,3.80
2023-02-08T18:13:05.348Z,3.80
2023-02-08T18:15:32.518Z,3.80
2023-02-08T18:18:06.624Z,3.80
2023-02-08T18:20:33.750Z,3.80
2023-02-08T18:23:00.905Z,3.80
2023-02-08T18:25:28.321Z,3.80
2023-02-08T18:27:56.891Z,3.80
2023-02-08T18:30:28.131Z,4.10
2023-02-08T18:32:58.741Z,3.80
2023-02-08T18:35:26.935Z,5.00
2023-02-08T18:37:53.742Z,3.80
2023-02-08T18:40:20.796Z,3.80
2023-02-08T18:42:47.511Z,5.50
2023-02-08T18:45:14.256Z,3.80
2023-02-08T18:47:41.200Z,4.40
2023-02-08T18:50:09.182Z,3.70
2023-02-08T18:52:35.927Z,3.70
2023-02-08T18:55:02.718Z,3.70
2023-02-08T18:57:29.521Z,3.60
2023-02-08T18:59:56.372Z,3.60
2023-02-08T19:02:26.348Z,3.50
2023-02-08T19:04:53.152Z,3.50
2023-02-08T19:07:20.065Z,3.50
2023-02-08T19:09:47.395Z,3.40
2023-02-08T19:12:15.575Z,3.40
2023-02-08T19:14:43.556Z,3.40
2023-02-08T19:17:14.995Z,3.30
2023-02-08T19:19:42.521Z,3.30
2023-02-08T19:22:09.630Z,3.30
2023-02-08T19:24:36.553Z,3.30
2023-02-08T19:27:06.198Z,3.30
2023-02-08T19:29:34.620Z,3.20
2023-02-08T19:32:03.773Z,3.20
2023-02-08T19:34:30.617Z,3.20
2023-02-08T19:36:57.625Z,3.20
2023-02-08T19:39:27.143Z,3.20
2023-02-08T19:41:59.051Z,3.20
2023-02-08T19:44:30.732Z,3.20
2023-02-08T19:47:01.052Z,3.10
2023-02-08T19:49:28.534Z,3.10
2023-02-08T19:51:59.164Z,3.10
2023-02-08T19:54:32.272Z,3.10
2023-02-08T19:57:00.129Z,3.00
2023-02-08T19:59:34.280Z,3.00
2023-02-08T20:02:02.430Z,3.00
2023-02-08T20:04:29.504Z,3.00
2023-02-08T20:06:56.588Z,3.00
2023-02-08T20:09:23.504Z,4.00
2023-02-08T20:12:00.117Z,2.90
2023-02-08T20:14:33.933Z,2.90
2023-02-08T20:17:08.267Z,2.90
2023-02-08T20:19:38.318Z,2.80
2023-02-08T20:22:05.249Z,2.80
2023-02-08T20:24:32.093Z,3.60
2023-02-08T20:27:01.037Z,2.80
2023-02-08T20:29:31.885Z,2.80
2023-02-08T20:32:02.251Z,2.80
2023-02-08T20:34:33.130Z,2.80
2023-02-08T20:37:07.293Z,2.80
2023-02-08T20:39:38.540Z,2.80
2023-02-08T20:42:14.026Z,2.80
2023-02-08T20:44:46.200Z,2.80
2023-02-08T20:47:21.705Z,2.80
2023-02-08T20:49:49.538Z,2.80
2023-02-08T20:52:19.431Z,2.80
2023-02-08T20:54:46.820Z,2.80
2023-02-08T20:57:18.253Z,2.80
2023-02-08T20:59:48.378Z,2.80
2023-02-08T21:02:25.737Z,2.80
2023-02-08T21:04:56.819Z,2.80
2023-02-08T21:07:24.703Z,2.80
2023-02-08T21:09:51.484Z,2.80
2023-02-08T21:12:25.805Z,2.80
2023-02-08T21:14:58.741Z,2.80
2023-02-08T21:17:25.642Z,2.80
2023-02-08T21:19:55.786Z,2.80
2023-02-08T21:22:22.754Z,2.80
2023-02-08T21:24:49.525Z,2.90
2023-02-08T21:27:16.434Z,4.20
2023-02-08T21:29:46.495Z,4.50
2023-02-08T21:32:13.428Z,2.80
2023-02-08T21:34:44.229Z,2.90
2023-02-08T21:37:11.068Z,2.80
2023-02-08T21:39:37.786Z,2.80
2023-02-08T21:42:04.672Z,2.80
2023-02-08T21:44:34.356Z,2.80
2023-02-08T21:47:05.397Z,2.80
2023-02-08T21:49:50.843Z,2.90
2023-02-08T21:52:36.287Z,2.90
2023-02-08T21:55:03.057Z,2.90
2023-02-08T21:57:30.806Z,2.90
2023-02-08T21:59:59.747Z,1.30
2023-02-08T22:02:28.924Z,2.90
2023-02-08T22:05:22.138Z,2.90
2023-02-08T22:07:54.171Z,2.90
2023-02-08T22:10:23.206Z,2.90
2023-02-08T22:12:50.047Z,2.90
2023-02-08T22:15:19.209Z,2.80
2023-02-08T22:17:46.772Z,2.90
2023-02-08T22:20:15.137Z,2.80
2023-02-08T22:22:41.902Z,2.90
2023-02-08T22:25:11.012Z,2.90
2023-02-08T22:27:41.883Z,2.90
2023-02-08T22:30:12.109Z,2.90
2023-02-08T22:32:43.790Z,2.90
2023-02-08T22:35:14.811Z,3.30
2023-02-08T22:37:42.993Z,2.90
2023-02-08T22:40:11.949Z,2.90
2023-02-08T22:42:40.168Z,2.90
2023-02-08T22:45:07.290Z,2.80
2023-02-08T22:47:34.293Z,2.90
2023-02-08T22:50:01.463Z,2.90
2023-02-08T22:52:28.443Z,2.80
2023-02-08T22:54:56.172Z,2.90
2023-02-08T22:57:23.056Z,2.80
2023-02-08T22:59:49.835Z,2.80
2023-02-08T23:02:17.902Z,4.30
2023-02-08T23:04:45.038Z,3.70
2023-02-08T23:07:11.841Z,2.80
2023-02-08T23:09:38.793Z,2.80
2023-02-08T23:12:05.961Z,2.80
2023-02-08T23:14:34.197Z,2.80
2023-02-08T23:17:04.086Z,4.80
2023-02-08T23:19:30.957Z,2.80
2023-02-08T23:22:00.797Z,2.80
2023-02-08T23:24:28.029Z,2.80
2023-02-08T23:26:58.171Z,2.80
2023-02-08T23:29:25.436Z,2.80
2023-02-08T23:31:52.247Z,3.30
2023-02-08T23:34:19.464Z,2.80
2023-02-08T23:36:46.273Z,2.80
2023-02-08T23:39:13.106Z,2.80
2023-02-08T23:41:39.850Z,2.80
2023-02-08T23:44:06.817Z,2.80
2023-02-08T23:46:33.800Z,2.80
2023-02-08T23:49:00.577Z,2.70
2023-02-08T23:51:27.351Z,2.80
2023-02-08T23:53:55.521Z,2.90
2023-02-08T23:56:28.177Z,2.70
2023-02-08T23:58:57.467Z,2.70
